Terminal Aerodrome Forecast
Issued by NWS

Home | Current Version | Previous Version | Text Only | Print | Product List | Glossary On
Versions: 1 2 3 4 5 6 7 8 9 10 11 12 13 14 15 16 17 18 19 20 21 22 23 24 25 26 27 28 29 30 31 32
117
FTUS41 KBTV 231124
TAFPBG
TAF
KPBG 231124Z 2312/2412 VRB04KT P6SM SCT120
     FM231600 15013G19KT P6SM VCSH BKN090
     FM232000 17017G25KT 6SM -RA BR OVC030
     FM240000 17017G24KT P6SM VCSH OVC025
     FM241000 30006KT P6SM BKN045=

USA.gov is the U.S. government's official web portal to all federal, state and local government web resources and services.